TimeMST,TemperatureF,Dew PointF,Humidity,Sea Level PressureIn,VisibilityMPH,Wind Direction,Wind SpeedMPH,Gust SpeedMPH,PrecipitationIn,Events,Conditions,WindDirDegrees,DateUTC
12:53 AM,26.1,16.0,66,30.27,10.0,Calm,Calm,-,N/A,,Clear,0,2012-12-05 07:53:00
1:53 AM,24.1,15.1,69,30.28,10.0,Calm,Calm,-,N/A,,Clear,0,2012-12-05 08:53:00
2:53 AM,24.1,16.0,71,30.28,10.0,Calm,Calm,-,N/A,,Clear,0,2012-12-05 09:53:00
3:53 AM,24.1,16.0,71,30.27,7.0,Calm,Calm,-,N/A,,Clear,0,2012-12-05 10:53:00
4:53 AM,24.1,16.0,71,30.27,7.0,Calm,Calm,-,N/A,,Clear,0,2012-12-05 11:53:00
5:53 AM,21.9,15.1,75,30.31,7.0,Calm,Calm,-,N/A,,Clear,0,2012-12-05 12:53:00
7:53 AM,21.0,14.0,74,30.36,9.0,Calm,Calm,-,N/A,,Clear,0,2012-12-05 14:53:00
8:53 AM,32.0,18.0,56,30.31,9.0,Calm,Calm,-,N/A,,Clear,0,2012-12-05 15:53:00
9:53 AM,41.0,19.0,41,30.27,10.0,Calm,Calm,-,N/A,,Clear,0,2012-12-05 16:53:00
10:53 AM,50.0,19.9,31,30.22,10.0,Calm,Calm,-,N/A,,Clear,0,2012-12-05 17:53:00
11:53 AM,55.0,19.9,25,30.15,10.0,South,3.5,-,N/A,,Clear,170,2012-12-05 18:53:00
12:53 PM,62.1,18.0,18,30.07,10.0,SSE,10.4,-,N/A,,Clear,160,2012-12-05 19:53:00
1:53 PM,63.0,15.1,16,30.04,10.0,SW,11.5,-,N/A,,Clear,230,2012-12-05 20:53:00
2:53 PM,64.0,10.9,13,30.02,10.0,West,13.8,25.3,N/A,,Clear,260,2012-12-05 21:53:00
3:53 PM,61.0,10.9,14,30.02,10.0,West,10.4,-,N/A,,Clear,260,2012-12-05 22:53:00
4:53 PM,54.0,12.0,19,30.06,10.0,WSW,5.8,-,N/A,,Clear,250,2012-12-05 23:53:00
5:53 PM,46.9,10.9,23,30.10,10.0,Calm,Calm,-,N/A,,Clear,0,2012-12-06 00:53:00
6:53 PM,41.0,12.0,31,30.13,10.0,SSW,4.6,-,N/A,,Clear,210,2012-12-06 01:53:00
7:53 PM,39.9,12.9,33,30.12,10.0,Calm,Calm,-,N/A,,Clear,0,2012-12-06 02:53:00
8:53 PM,32.0,12.0,44,30.11,10.0,Calm,Calm,-,N/A,,Clear,0,2012-12-06 03:53:00
9:53 PM,35.1,12.9,40,30.05,10.0,Calm,Calm,-,N/A,,Clear,0,2012-12-06 04:53:00
10:53 PM,28.0,10.9,49,30.04,8.0,Calm,Calm,-,N/A,,Clear,0,2012-12-06 05:53:00
11:53 PM,27.0,10.9,51,30.01,10.0,Calm,Calm,-,N/A,,Clear,0,2012-12-06 06:53:00